createdAt,value
2022-09-06T00:00:01.303Z,70.81
2022-09-06T00:01:11.196Z,70.33
2022-09-06T00:02:12.643Z,70.95
2022-09-06T00:03:14.095Z,70.35
2022-09-06T00:04:15.921Z,69.99
2022-09-06T00:05:17.486Z,69.19
2022-09-06T00:06:20.341Z,68.92
2022-09-06T00:07:21.701Z,69.00
2022-09-06T00:08:23.220Z,69.99
2022-09-06T00:09:25.326Z,70.36
2022-09-06T00:10:28.645Z,70.62
2022-09-06T00:11:30.120Z,70.35
2022-09-06T00:12:32.414Z,69.60
2022-09-06T00:13:34.570Z,69.31
2022-09-06T00:14:36.414Z,69.25
2022-09-06T00:15:38.080Z,69.10
2022-09-06T00:16:40.702Z,69.14
2022-09-06T00:17:44.614Z,69.41
2022-09-06T00:18:46.856Z,70.79
2022-09-06T00:19:48.570Z,70.39
2022-09-06T00:20:50.068Z,70.81
2022-09-06T00:21:51.555Z,70.35
2022-09-06T00:22:57.527Z,70.07
2022-09-06T00:23:59.384Z,69.75
2022-09-06T00:25:00.870Z,70.10
2022-09-06T00:26:03.943Z,69.94
2022-09-06T00:27:06.940Z,69.46
2022-09-06T00:28:08.583Z,69.78
2022-09-06T00:29:10.340Z,70.43
2022-09-06T00:30:12.177Z,71.19
2022-09-06T00:31:16.875Z,71.00
2022-09-06T00:32:18.380Z,70.39
2022-09-06T00:33:19.835Z,70.94
2022-09-06T00:34:21.599Z,71.47
2022-09-06T00:35:27.399Z,70.96
2022-09-06T00:36:28.855Z,70.56
2022-09-06T00:37:30.427Z,70.84
2022-09-06T00:38:32.297Z,71.06
2022-09-06T00:39:34.092Z,71.40
2022-09-06T00:40:35.851Z,71.44
2022-09-06T00:41:37.357Z,71.68
2022-09-06T00:42:39.134Z,71.36
2022-09-06T00:43:41.474Z,70.80
2022-09-06T00:44:43.276Z,71.08
2022-09-06T00:45:44.926Z,70.62
2022-09-06T00:46:50.591Z,69.96
2022-09-06T00:47:52.097Z,70.38
2022-09-06T00:48:58.772Z,71.33
2022-09-06T00:50:01.536Z,72.31
2022-09-06T00:51:07.699Z,71.68
2022-09-06T00:52:12.056Z,71.49
2022-09-06T00:53:14.038Z,71.88
2022-09-06T00:54:16.421Z,72.54
2022-09-06T00:55:18.987Z,72.62
2022-09-06T00:56:20.838Z,72.26
2022-09-06T00:57:27.079Z,72.51
2022-09-06T00:58:28.851Z,71.98
2022-09-06T00:59:33.390Z,71.73
2022-09-06T01:00:35.209Z,71.56
2022-09-06T01:01:36.851Z,71.20
2022-09-06T01:02:38.626Z,71.68
2022-09-06T01:03:40.438Z,71.82
2022-09-06T01:04:44.203Z,71.66
2022-09-06T01:06:02.320Z,71.31
2022-09-06T01:07:33.500Z,70.93
2022-09-06T01:08:53.675Z,71.77
2022-09-06T01:10:01.062Z,71.81
2022-09-06T01:11:20.954Z,71.24
2022-09-06T01:12:37.747Z,71.42
2022-09-06T01:13:55.132Z,71.60
2022-09-06T01:15:08.645Z,71.15
2022-09-06T01:16:38.485Z,71.00
2022-09-06T01:18:01.706Z,71.06
2022-09-06T01:19:44.185Z,71.81
2022-09-06T01:21:00.661Z,72.50
2022-09-06T01:22:17.378Z,72.07
2022-09-06T01:23:30.932Z,72.09
2022-09-06T01:25:10.681Z,71.22
2022-09-06T01:26:39.653Z,70.70
2022-09-06T01:27:59.084Z,71.40
2022-09-06T01:29:01.652Z,70.99
2022-09-06T01:30:09.463Z,72.29
2022-09-06T01:31:31.364Z,72.46
2022-09-06T01:32:43.869Z,71.37
2022-09-06T01:34:18.348Z,72.00
2022-09-06T01:35:34.011Z,71.56
2022-09-06T01:37:08.502Z,71.87
2022-09-06T01:38:10.778Z,71.90
2022-09-06T01:39:24.365Z,72.11
2022-09-06T01:40:28.093Z,72.90
2022-09-06T01:41:30.436Z,73.16
2022-09-06T01:42:34.047Z,73.07
2022-09-06T01:43:38.947Z,73.31
2022-09-06T01:44:51.673Z,72.91
2022-09-06T01:46:05.379Z,72.05
2022-09-06T01:47:36.923Z,72.07
2022-09-06T01:49:12.265Z,72.33
2022-09-06T01:50:16.982Z,71.44
2022-09-06T01:51:29.836Z,71.68
2022-09-06T01:52:59.110Z,72.15
2022-09-06T01:54:14.956Z,72.63
2022-09-06T01:55:36.963Z,72.47
2022-09-06T01:57:05.988Z,72.17
2022-09-06T01:58:38.543Z,72.14
2022-09-06T01:59:47.530Z,71.51
2022-09-06T02:00:55.776Z,70.79
2022-09-06T02:02:10.230Z,71.29
2022-09-06T02:03:32.700Z,71.23
2022-09-06T02:04:49.418Z,71.02
2022-09-06T02:05:55.223Z,70.67
2022-09-06T02:07:08.134Z,70.50
2022-09-06T02:08:21.888Z,71.71
2022-09-06T02:09:27.702Z,71.82
2022-09-06T02:10:36.570Z,72.28
2022-09-06T02:11:43.423Z,72.99
2022-09-06T02:12:47.841Z,72.77
2022-09-06T02:14:06.720Z,72.29
2022-09-06T02:15:14.961Z,71.73
2022-09-06T02:16:25.109Z,71.33
2022-09-06T02:17:31.712Z,71.20
2022-09-06T02:18:36.232Z,70.95
2022-09-06T02:19:46.358Z,70.84
2022-09-06T02:20:52.593Z,70.83
2022-09-06T02:21:57.005Z,70.81
2022-09-06T02:23:04.063Z,70.79
2022-09-06T02:24:10.252Z,71.54
2022-09-06T02:25:18.859Z,71.66
2022-09-06T02:26:25.483Z,71.75
2022-09-06T02:27:29.220Z,71.61
2022-09-06T02:28:32.976Z,71.56
2022-09-06T02:29:35.502Z,71.56
2022-09-06T02:30:41.136Z,71.17
2022-09-06T02:31:53.706Z,71.22
2022-09-06T02:33:02.477Z,71.18
2022-09-06T02:34:04.975Z,71.31
2022-09-06T02:35:13.619Z,71.08
2022-09-06T02:36:15.953Z,71.78
2022-09-06T02:37:17.806Z,71.67
2022-09-06T02:38:23.768Z,71.96
2022-09-06T02:39:25.388Z,72.35
2022-09-06T02:40:27.364Z,72.40
2022-09-06T02:41:31.072Z,73.34
2022-09-06T02:42:33.068Z,73.13
2022-09-06T02:43:34.715Z,72.62
2022-09-06T02:44:36.209Z,72.26
2022-09-06T02:45:38.428Z,72.07
2022-09-06T02:46:40.214Z,71.47
2022-09-06T02:47:41.781Z,71.53
2022-09-06T02:48:43.300Z,71.45
2022-09-06T02:49:44.867Z,71.80
2022-09-06T02:50:46.698Z,72.58
2022-09-06T02:51:48.267Z,72.00
2022-09-06T02:53:10.110Z,72.23
2022-09-06T02:54:11.684Z,71.83
2022-09-06T02:55:13.576Z,72.75
2022-09-06T02:56:15.166Z,73.22
2022-09-06T02:57:16.698Z,73.46
2022-09-06T02:58:18.224Z,73.27
2022-09-06T02:59:19.991Z,72.57
2022-09-06T03:00:21.840Z,72.38
2022-09-06T03:01:23.351Z,72.10
2022-09-06T03:02:25.108Z,71.94
2022-09-06T03:03:27.583Z,71.88
2022-09-06T03:04:29.218Z,72.35
2022-09-06T03:05:31.579Z,72.58
2022-09-06T03:06:33.207Z,72.54
2022-09-06T03:07:34.705Z,73.32
2022-09-06T03:08:36.564Z,73.36
2022-09-06T03:09:38.448Z,73.92
2022-09-06T03:10:39.936Z,73.83
2022-09-06T03:11:41.438Z,73.31
2022-09-06T03:12:43.880Z,72.77
2022-09-06T03:13:45.366Z,72.55
2022-09-06T03:14:47.164Z,72.85
2022-09-06T03:15:58.034Z,73.25
2022-09-06T03:16:59.579Z,74.02
2022-09-06T03:18:01.121Z,74.12
2022-09-06T03:19:02.900Z,73.54
2022-09-06T03:20:05.368Z,73.57
2022-09-06T03:21:06.842Z,73.12
2022-09-06T03:22:08.382Z,72.80
2022-09-06T03:23:09.889Z,73.35
2022-09-06T03:24:11.397Z,73.56
2022-09-06T03:25:13.222Z,73.23
2022-09-06T03:26:14.722Z,73.84
2022-09-06T03:27:16.181Z,73.29
2022-09-06T03:28:18.672Z,73.91
2022-09-06T03:29:20.199Z,73.88
2022-09-06T03:30:21.705Z,72.97
2022-09-06T03:31:23.298Z,72.58
2022-09-06T03:32:25.062Z,72.91
2022-09-06T03:33:26.545Z,72.69
2022-09-06T03:34:28.399Z,72.93
2022-09-06T03:35:30.043Z,72.70
2022-09-06T03:36:31.515Z,72.89
2022-09-06T03:37:32.986Z,72.54
2022-09-06T03:38:34.692Z,73.35
2022-09-06T03:39:36.569Z,74.28
2022-09-06T03:40:38.098Z,74.31
2022-09-06T03:41:39.582Z,74.34
2022-09-06T03:42:41.091Z,74.50
2022-09-06T03:43:42.556Z,74.04
2022-09-06T03:44:44.396Z,73.40
2022-09-06T03:45:50.849Z,72.30
2022-09-06T03:46:52.756Z,72.06
2022-09-06T03:47:54.241Z,71.73
2022-09-06T03:48:55.778Z,71.39
2022-09-06T03:49:57.585Z,71.24
2022-09-06T03:50:59.280Z,71.56
2022-09-06T03:52:01.002Z,71.62
2022-09-06T03:53:02.483Z,71.62
2022-09-06T03:54:04.468Z,71.42
2022-09-06T03:55:06.885Z,71.82
2022-09-06T03:56:08.375Z,71.71
2022-09-06T03:57:10.284Z,72.10
2022-09-06T03:58:12.016Z,71.83
2022-09-06T03:59:13.542Z,72.54
2022-09-06T04:00:16.289Z,73.54
2022-09-06T04:01:17.906Z,73.93
2022-09-06T04:02:19.648Z,73.84
2022-09-06T04:03:22.070Z,73.65
2022-09-06T04:04:23.953Z,74.04
2022-09-06T04:05:25.538Z,73.99
2022-09-06T04:06:27.935Z,74.03
2022-09-06T04:07:29.407Z,74.61
2022-09-06T04:08:31.217Z,74.84
2022-09-06T04:09:33.031Z,74.32
2022-09-06T04:10:34.512Z,74.55
2022-09-06T04:11:36.258Z,74.05
2022-09-06T04:12:37.710Z,73.90
2022-09-06T04:13:39.496Z,74.36
2022-09-06T04:14:40.998Z,74.32
2022-09-06T04:15:46.862Z,74.10
2022-09-06T04:16:49.283Z,73.87
2022-09-06T04:17:50.809Z,73.87
2022-09-06T04:18:52.686Z,73.25
2022-09-06T04:19:54.232Z,72.51
2022-09-06T04:20:56.696Z,71.85
2022-09-06T04:21:58.238Z,71.89
2022-09-06T04:22:59.744Z,71.53
2022-09-06T04:24:01.830Z,71.76
2022-09-06T04:25:04.194Z,72.17
2022-09-06T04:26:05.744Z,72.17
2022-09-06T04:27:07.233Z,72.34
2022-09-06T04:28:08.950Z,72.39
2022-09-06T04:29:10.767Z,72.35
2022-09-06T04:30:12.374Z,71.92
2022-09-06T04:31:13.854Z,72.18
2022-09-06T04:32:15.281Z,72.28
2022-09-06T04:33:16.730Z,72.35
2022-09-06T04:34:20.036Z,72.34
2022-09-06T04:35:21.581Z,73.32
2022-09-06T04:36:23.223Z,73.58
2022-09-06T04:37:24.679Z,73.28
2022-09-06T04:38:28.237Z,72.65
2022-09-06T04:39:29.854Z,73.15
2022-09-06T04:40:31.450Z,73.47
2022-09-06T04:41:33.191Z,74.02
2022-09-06T04:42:34.823Z,73.74
2022-09-06T04:43:36.663Z,74.40
2022-09-06T04:44:38.183Z,74.75
2022-09-06T04:45:39.755Z,75.06
2022-09-06T04:46:42.562Z,75.37
2022-09-06T04:47:44.167Z,75.54
2022-09-06T04:48:46.408Z,75.42
2022-09-06T04:49:50.677Z,75.77
2022-09-06T04:50:52.287Z,75.19
2022-09-06T04:51:53.717Z,74.73
2022-09-06T04:52:55.199Z,74.68
2022-09-06T04:53:56.704Z,75.06
2022-09-06T04:54:58.161Z,74.85
2022-09-06T04:55:59.726Z,75.78
2022-09-06T04:57:01.227Z,75.95
2022-09-06T04:58:03.714Z,74.97
2022-09-06T04:59:05.273Z,74.88
2022-09-06T05:00:07.563Z,74.61
2022-09-06T05:01:09.194Z,74.58
2022-09-06T05:02:10.800Z,73.93
2022-09-06T05:03:12.698Z,73.42
2022-09-06T05:04:14.169Z,73.47
2022-09-06T05:05:15.817Z,72.85
2022-09-06T05:06:23.058Z,72.78
2022-09-06T05:07:24.539Z,72.49
2022-09-06T05:08:26.402Z,72.37
2022-09-06T05:09:28.128Z,72.50
2022-09-06T05:10:29.601Z,72.59
2022-09-06T05:11:31.203Z,72.85
2022-09-06T05:12:32.686Z,73.42
2022-09-06T05:13:35.885Z,74.17
2022-09-06T05:14:37.405Z,74.51
2022-09-06T05:15:38.885Z,75.00
2022-09-06T05:16:40.475Z,75.17
2022-09-06T05:17:41.992Z,75.34
2022-09-06T05:18:44.313Z,75.70
2022-09-06T05:19:45.823Z,75.82
2022-09-06T05:20:54.103Z,76.01
2022-09-06T05:21:55.694Z,76.08
2022-09-06T05:22:57.335Z,76.13
2022-09-06T05:23:59.203Z,76.05
2022-09-06T05:25:00.674Z,75.96
2022-09-06T05:26:02.613Z,75.31
2022-09-06T05:27:05.529Z,75.13
2022-09-06T05:28:07.224Z,75.72
2022-09-06T05:29:08.891Z,75.74
2022-09-06T05:30:10.850Z,75.87
2022-09-06T05:31:23.878Z,75.97
2022-09-06T05:32:25.562Z,75.83
2022-09-06T05:33:27.382Z,75.88
2022-09-06T05:34:28.920Z,75.76
2022-09-06T05:35:30.949Z,75.91
2022-09-06T05:36:32.671Z,75.89
2022-09-06T05:37:34.114Z,76.05
2022-09-06T05:38:36.032Z,76.23
2022-09-06T05:39:37.593Z,76.48
2022-09-06T05:40:39.152Z,76.53
2022-09-06T05:41:40.718Z,76.61
2022-09-06T05:42:42.260Z,76.34
2022-09-06T05:43:45.577Z,75.33
2022-09-06T05:44:47.118Z,74.95
2022-09-06T05:45:48.783Z,74.46
2022-09-06T05:46:50.300Z,74.43
2022-09-06T05:47:52.096Z,74.64
2022-09-06T05:49:01.213Z,74.90
2022-09-06T05:50:03.535Z,74.93
2022-09-06T05:51:13.119Z,74.62
2022-09-06T05:52:14.664Z,74.46
2022-09-06T05:53:16.406Z,74.46
2022-09-06T05:54:18.181Z,74.76
2022-09-06T05:55:19.648Z,75.30
2022-09-06T05:56:22.328Z,75.46
2022-09-06T05:57:24.031Z,75.62
2022-09-06T05:58:25.556Z,75.54
2022-09-06T05:59:27.049Z,74.50
2022-09-06T06:00:28.569Z,74.29
2022-09-06T06:01:30.625Z,74.93
2022-09-06T06:02:32.582Z,75.24
2022-09-06T06:03:34.239Z,75.51
2022-09-06T06:04:35.907Z,75.58
2022-09-06T06:05:37.378Z,75.82
2022-09-06T06:06:38.843Z,75.95
2022-09-06T06:07:40.624Z,76.23
2022-09-06T06:08:42.090Z,75.95
2022-09-06T06:09:43.836Z,75.70
2022-09-06T06:10:45.298Z,75.60
2022-09-06T06:11:46.885Z,75.00
2022-09-06T06:12:48.894Z,74.79
2022-09-06T06:13:50.873Z,74.48
2022-09-06T06:14:52.432Z,74.36
2022-09-06T06:15:54.180Z,73.98
2022-09-06T06:16:55.736Z,73.57
2022-09-06T06:17:57.580Z,72.89
2022-09-06T06:18:59.183Z,72.69
2022-09-06T06:20:00.673Z,72.40
2022-09-06T06:21:09.264Z,72.56
2022-09-06T06:22:10.961Z,73.22
2022-09-06T06:23:15.339Z,73.68
2022-09-06T06:24:16.896Z,74.14
2022-09-06T06:25:22.441Z,73.93
2022-09-06T06:26:25.149Z,73.21
2022-09-06T06:27:27.001Z,73.49
2022-09-06T06:28:29.067Z,73.00
2022-09-06T06:29:30.828Z,72.87
2022-09-06T06:30:32.357Z,72.56
2022-09-06T06:31:34.128Z,72.84
2022-09-06T06:32:36.031Z,72.77
2022-09-06T06:33:38.579Z,72.75
2022-09-06T06:34:40.058Z,72.77
2022-09-06T06:35:41.568Z,73.10
2022-09-06T06:36:44.316Z,73.31
2022-09-06T06:37:46.202Z,72.71
2022-09-06T06:38:49.078Z,72.15
2022-09-06T06:39:50.570Z,71.84
2022-09-06T06:40:56.501Z,72.60
2022-09-06T06:42:00.914Z,72.72
2022-09-06T06:43:02.550Z,72.95
2022-09-06T06:44:05.617Z,73.19
2022-09-06T06:45:08.100Z,72.55
2022-09-06T06:46:13.178Z,72.31
2022-09-06T06:47:15.021Z,70.80
2022-09-06T06:48:17.145Z,70.06
2022-09-06T06:49:18.726Z,69.83
2022-09-06T06:50:20.209Z,69.30
2022-09-06T06:51:24.498Z,69.64
2022-09-06T06:52:26.335Z,69.50
2022-09-06T06:53:28.019Z,69.83
2022-09-06T06:54:29.959Z,70.44
2022-09-06T06:55:31.513Z,71.06
2022-09-06T06:56:38.255Z,71.04
2022-09-06T06:57:40.109Z,71.16
2022-09-06T06:58:41.648Z,71.25
2022-09-06T06:59:43.466Z,71.50
2022-09-06T07:00:45.405Z,71.83
2022-09-06T07:01:47.468Z,71.38
2022-09-06T07:02:48.972Z,71.39
2022-09-06T07:03:50.879Z,70.88
2022-09-06T07:04:52.405Z,70.02
2022-09-06T07:08:33.445Z,66.45
2022-09-06T07:10:56.391Z,66.54
2022-09-06T07:11:58.293Z,66.44
2022-09-06T07:13:00.084Z,66.46
2022-09-06T07:14:01.580Z,66.79
2022-09-06T07:15:03.229Z,67.81
2022-09-06T07:16:19.556Z,68.09
2022-09-06T07:17:21.482Z,67.96
2022-09-06T07:18:23.000Z,67.63
2022-09-06T07:22:11.712Z,66.74
2022-09-06T07:24:36.155Z,68.63
2022-09-06T07:25:37.665Z,69.06
2022-09-06T07:26:40.185Z,69.14
2022-09-06T07:27:47.752Z,68.99
2022-09-06T07:28:54.354Z,68.96
2022-09-06T07:29:55.850Z,68.89
2022-09-06T07:30:58.248Z,68.62
2022-09-06T07:32:15.715Z,67.23
2022-09-06T07:33:17.611Z,67.31
2022-09-06T07:34:20.626Z,68.10
2022-09-06T07:35:22.391Z,68.21
2022-09-06T07:36:24.011Z,67.85
2022-09-06T07:37:25.856Z,66.61
2022-09-06T07:38:30.854Z,66.06
2022-09-06T07:39:37.068Z,65.52
2022-09-06T07:40:38.627Z,65.63
2022-09-06T07:41:40.200Z,64.31
2022-09-06T07:42:42.876Z,63.59
2022-09-06T07:43:45.482Z,62.54
2022-09-06T07:44:47.027Z,62.74
2022-09-06T07:45:49.330Z,63.21
2022-09-06T07:46:52.622Z,61.94
2022-09-06T07:49:05.559Z,60.18
2022-09-06T07:51:29.504Z,60.14
2022-09-06T07:54:13.306Z,62.60
2022-09-06T07:55:19.317Z,59.72
2022-09-06T07:56:22.553Z,58.17
2022-09-06T07:57:24.072Z,57.18
2022-09-06T07:58:25.913Z,57.58
2022-09-06T07:59:27.575Z,57.37
2022-09-06T08:00:29.111Z,56.46
2022-09-06T08:01:38.895Z,54.85
2022-09-06T08:02:40.954Z,54.26
2022-09-06T08:03:43.159Z,52.94
2022-09-06T08:04:48.601Z,56.22
2022-09-06T08:09:53.199Z,61.47
2022-09-06T08:10:54.695Z,61.61
2022-09-06T08:11:56.135Z,62.24
2022-09-06T08:12:57.651Z,62.48
2022-09-06T08:14:00.800Z,62.49
2022-09-06T08:15:02.441Z,61.89
2022-09-06T08:16:07.065Z,61.15
2022-09-06T08:17:08.634Z,62.56
2022-09-06T08:18:10.099Z,63.40
2022-09-06T08:19:14.716Z,63.83
2022-09-06T08:20:17.430Z,64.08
2022-09-06T08:21:19.667Z,64.55
2022-09-06T08:22:21.317Z,63.36
2022-09-06T08:23:22.914Z,62.42
2022-09-06T08:24:24.916Z,62.26
2022-09-06T08:25:26.515Z,63.34
2022-09-06T08:26:29.967Z,63.86
2022-09-06T08:27:31.574Z,63.21
2022-09-06T08:28:33.498Z,63.73
2022-09-06T08:29:35.638Z,64.43
2022-09-06T08:30:37.132Z,64.60
2022-09-06T08:31:40.816Z,64.46
2022-09-06T08:32:42.985Z,64.58
2022-09-06T08:33:45.109Z,63.97
2022-09-06T08:34:46.593Z,64.72
2022-09-06T08:35:56.453Z,63.67
2022-09-06T08:36:57.975Z,63.03
2022-09-06T08:37:59.502Z,63.19
2022-09-06T08:39:03.334Z,63.36
2022-09-06T08:40:05.260Z,62.90
2022-09-06T08:41:28.109Z,63.02
2022-09-06T08:42:30.190Z,63.10
2022-09-06T08:43:32.042Z,62.94
2022-09-06T08:45:57.123Z,63.35
2022-09-06T08:47:04.633Z,64.06
2022-09-06T08:48:07.072Z,64.11
2022-09-06T08:49:09.840Z,64.13
2022-09-06T08:50:11.421Z,64.02
2022-09-06T08:51:38.602Z,63.38
2022-09-06T08:53:13.634Z,63.52
2022-09-06T08:54:26.508Z,63.22
2022-09-06T08:55:40.234Z,62.52
2022-09-06T08:57:08.636Z,62.20
2022-09-06T08:58:34.967Z,62.87
2022-09-06T08:59:39.817Z,62.28
2022-09-06T09:00:48.220Z,61.96
2022-09-06T09:02:15.246Z,61.50
2022-09-06T09:03:24.598Z,62.20
2022-09-06T09:04:29.984Z,63.39
2022-09-06T09:05:34.239Z,62.96
2022-09-06T09:06:35.840Z,62.98
2022-09-06T09:07:45.320Z,63.35
2022-09-06T09:08:48.259Z,63.46
2022-09-06T09:09:52.230Z,63.45
2022-09-06T09:11:04.002Z,63.56
2022-09-06T09:12:06.399Z,63.51
2022-09-06T09:13:15.996Z,62.95
2022-09-06T09:14:24.252Z,62.83
2022-09-06T09:15:25.846Z,62.44
2022-09-06T09:16:27.563Z,62.29
2022-09-06T09:17:31.317Z,62.81
2022-09-06T09:18:37.063Z,61.86
2022-09-06T09:19:40.824Z,62.50
2022-09-06T09:20:42.362Z,62.27
2022-09-06T09:21:43.920Z,61.89
2022-09-06T09:22:46.249Z,60.80
2022-09-06T09:23:56.901Z,60.00
2022-09-06T09:25:00.197Z,60.40
2022-09-06T09:26:12.151Z,60.10
2022-09-06T09:27:18.136Z,60.34
2022-09-06T09:28:23.729Z,61.32
2022-09-06T09:29:28.785Z,61.75
2022-09-06T09:30:55.507Z,61.88
2022-09-06T09:31:57.264Z,61.62
2022-09-06T09:32:58.845Z,62.06
2022-09-06T09:34:04.951Z,62.38
2022-09-06T09:35:27.802Z,59.91
2022-09-06T09:36:29.283Z,58.98
2022-09-06T09:37:46.984Z,59.10
2022-09-06T09:38:50.096Z,58.55
2022-09-06T09:39:55.689Z,58.50
2022-09-06T09:40:57.347Z,58.29
2022-09-06T09:41:58.953Z,58.29
2022-09-06T09:43:16.182Z,57.23
2022-09-06T09:44:19.636Z,57.21
2022-09-06T09:45:21.193Z,56.78
2022-09-06T09:46:25.635Z,57.30
2022-09-06T09:47:29.277Z,57.63
2022-09-06T09:48:31.161Z,57.26
2022-09-06T09:49:33.277Z,57.96
2022-09-06T09:50:35.414Z,58.21
2022-09-06T09:51:39.715Z,58.52
2022-09-06T09:52:44.718Z,57.61
2022-09-06T09:53:54.367Z,58.19
2022-09-06T09:55:05.123Z,57.81
2022-09-06T09:56:06.809Z,57.94
2022-09-06T09:57:18.407Z,57.45
2022-09-06T09:58:32.435Z,57.49
2022-09-06T09:59:37.030Z,57.16
2022-09-06T10:00:41.527Z,57.41
2022-09-06T10:01:43.322Z,58.24
2022-09-06T10:02:44.878Z,57.77
2022-09-06T10:05:17.490Z,57.42
2022-09-06T10:07:55.210Z,56.93
2022-09-06T10:08:56.985Z,57.09
2022-09-06T10:10:05.807Z,56.89
2022-09-06T10:11:07.386Z,57.10
2022-09-06T10:12:16.965Z,56.90
2022-09-06T10:13:29.443Z,56.00
2022-09-06T10:14:33.807Z,55.47
2022-09-06T10:15:39.209Z,55.32
2022-09-06T10:16:43.902Z,54.98
2022-09-06T10:17:51.424Z,54.24
2022-09-06T10:18:52.871Z,54.36
2022-09-06T10:19:54.936Z,54.51
2022-09-06T10:21:10.714Z,55.03
2022-09-06T10:22:23.519Z,55.87
2022-09-06T10:25:31.371Z,54.80
2022-09-06T10:26:52.095Z,54.08
2022-09-06T10:28:27.460Z,54.04
2022-09-06T10:29:38.091Z,53.75
2022-09-06T10:31:10.494Z,53.89
2022-09-06T10:32:31.122Z,53.20
2022-09-06T10:34:06.120Z,52.72
2022-09-06T10:35:22.947Z,52.66
2022-09-06T10:36:51.287Z,52.90
2022-09-06T10:38:11.234Z,52.61
2022-09-06T10:39:43.892Z,52.15
2022-09-06T10:41:39.538Z,51.22
2022-09-06T10:42:48.346Z,50.55
2022-09-06T10:43:56.633Z,50.28
2022-09-06T10:45:07.302Z,50.27
2022-09-06T10:46:15.702Z,50.79
2022-09-06T10:47:18.339Z,50.62
2022-09-06T10:48:44.962Z,50.56
2022-09-06T10:49:56.209Z,50.30
2022-09-06T10:51:04.235Z,50.67
2022-09-06T10:52:09.396Z,50.67
2022-09-06T10:53:17.251Z,50.86
2022-09-06T10:54:23.557Z,50.76
2022-09-06T10:55:25.908Z,50.88
2022-09-06T10:56:36.469Z,50.65
2022-09-06T11:00:43.588Z,51.28
2022-09-06T11:02:03.289Z,51.33
2022-09-06T11:06:08.603Z,49.28
2022-09-06T11:07:29.689Z,49.66
2022-09-06T11:08:57.591Z,49.61
2022-09-06T11:10:04.419Z,49.65
2022-09-06T11:11:16.077Z,49.82
2022-09-06T11:12:23.549Z,49.36
2022-09-06T11:13:28.255Z,49.05
2022-09-06T11:14:30.349Z,48.80
2022-09-06T11:15:47.491Z,48.88
2022-09-06T11:17:03.168Z,49.17
2022-09-06T11:18:11.660Z,48.57
2022-09-06T11:19:21.515Z,47.51
2022-09-06T11:21:07.636Z,47.13
2022-09-06T11:22:35.657Z,47.19
2022-09-06T11:24:01.764Z,47.94
2022-09-06T11:25:29.969Z,47.12
2022-09-06T11:26:45.291Z,47.61
2022-09-06T11:27:57.755Z,47.97
2022-09-06T11:29:03.020Z,48.16
2022-09-06T11:30:06.051Z,48.10
2022-09-06T11:32:40.961Z,47.61
2022-09-06T11:33:42.527Z,47.49
2022-09-06T11:34:53.604Z,47.65
2022-09-06T11:36:17.436Z,47.47
2022-09-06T11:37:31.168Z,47.51
2022-09-06T11:38:32.728Z,47.17
2022-09-06T11:41:02.805Z,44.88
2022-09-06T11:42:27.745Z,45.02
2022-09-06T11:43:45.768Z,45.45
2022-09-06T11:44:50.167Z,46.02
2022-09-06T11:45:53.179Z,45.88
2022-09-06T11:46:54.618Z,44.73
2022-09-06T11:47:56.229Z,45.50
2022-09-06T11:49:09.076Z,45.01
2022-09-06T11:50:24.351Z,45.04
2022-09-06T11:51:47.073Z,46.30
2022-09-06T11:53:16.976Z,45.35
2022-09-06T11:54:18.398Z,44.69
2022-09-06T11:55:24.809Z,44.98
2022-09-06T11:56:31.784Z,44.07
2022-09-06T11:57:33.367Z,44.09
2022-09-06T11:58:56.318Z,44.22
2022-09-06T12:00:04.575Z,44.97
2022-09-06T12:01:12.296Z,43.39
2022-09-06T12:02:31.792Z,43.39
2022-09-06T12:04:09.042Z,43.81
2022-09-06T12:05:15.123Z,44.28
2022-09-06T12:06:20.134Z,44.29
2022-09-06T12:07:21.661Z,44.01
2022-09-06T12:08:30.642Z,44.20
2022-09-06T12:09:37.522Z,44.35
2022-09-06T12:10:38.937Z,44.54
2022-09-06T12:11:41.985Z,43.98
2022-09-06T12:12:48.966Z,44.24
2022-09-06T12:13:53.923Z,43.99
2022-09-06T12:14:55.389Z,43.50
2022-09-06T12:15:57.070Z,44.01
2022-09-06T12:16:58.821Z,43.79
2022-09-06T12:18:00.552Z,43.71
2022-09-06T12:19:02.139Z,43.79
2022-09-06T12:20:06.795Z,42.96
2022-09-06T12:21:09.800Z,43.25
2022-09-06T12:22:26.787Z,43.37
2022-09-06T12:23:34.338Z,43.83
2022-09-06T12:24:35.801Z,43.51
2022-09-06T12:25:37.248Z,43.33
2022-09-06T12:26:55.921Z,42.71
2022-09-06T12:28:00.393Z,42.87
2022-09-06T12:29:09.225Z,43.20
2022-09-06T12:30:12.228Z,43.01
2022-09-06T12:31:33.949Z,42.90
2022-09-06T12:32:45.566Z,42.61
2022-09-06T12:33:48.077Z,42.95
2022-09-06T12:36:24.645Z,43.10
2022-09-06T12:37:48.977Z,43.56
2022-09-06T12:38:59.028Z,43.41
2022-09-06T12:40:01.297Z,43.52
2022-09-06T12:41:04.958Z,43.52
2022-09-06T12:42:12.114Z,43.90
2022-09-06T12:43:15.705Z,43.96
2022-09-06T12:44:21.961Z,43.81
2022-09-06T12:45:27.422Z,43.92
2022-09-06T12:46:31.453Z,44.20
2022-09-06T12:47:37.427Z,44.26
2022-09-06T12:48:41.409Z,43.85
2022-09-06T12:49:43.013Z,43.29
2022-09-06T12:50:44.490Z,43.71
2022-09-06T12:51:46.683Z,43.33
2022-09-06T12:52:51.412Z,43.57
2022-09-06T12:53:56.899Z,43.29
2022-09-06T12:54:58.612Z,42.66
2022-09-06T12:56:12.628Z,42.68
2022-09-06T12:57:19.866Z,40.64
2022-09-06T12:58:28.126Z,40.53
2022-09-06T12:59:29.740Z,40.61
2022-09-06T13:00:51.437Z,40.94
2022-09-06T13:02:02.783Z,41.37
2022-09-06T13:03:10.130Z,41.34
2022-09-06T13:04:25.401Z,41.11
2022-09-06T13:05:27.223Z,41.00
2022-09-06T13:06:33.320Z,40.88
2022-09-06T13:07:41.669Z,40.74
2022-09-06T13:08:53.097Z,40.68
2022-09-06T13:09:57.460Z,40.43
2022-09-06T13:10:59.606Z,40.06
2022-09-06T13:12:18.710Z,40.37
2022-09-06T13:13:24.051Z,40.33
2022-09-06T13:14:29.387Z,39.65
2022-09-06T13:15:31.523Z,39.69
2022-09-06T13:16:42.661Z,39.56
2022-09-06T13:17:44.577Z,38.77
2022-09-06T13:18:46.219Z,39.06
2022-09-06T13:19:48.721Z,39.19
2022-09-06T13:21:01.904Z,38.95
2022-09-06T13:22:07.923Z,38.00
2022-09-06T13:23:11.964Z,37.86
2022-09-06T13:24:36.661Z,38.35
2022-09-06T13:25:52.893Z,38.65
2022-09-06T13:26:54.627Z,38.31
2022-09-06T13:27:59.326Z,38.56
2022-09-06T13:29:31.167Z,37.88
2022-09-06T13:30:49.551Z,38.21
2022-09-06T13:31:54.251Z,37.62
2022-09-06T13:32:56.129Z,37.26
2022-09-06T13:33:59.401Z,36.93
2022-09-06T13:35:01.696Z,37.04
2022-09-06T13:36:08.662Z,36.62
2022-09-06T13:37:10.757Z,37.06
2022-09-06T13:38:22.016Z,36.72
2022-09-06T13:39:41.035Z,37.00
2022-09-06T13:42:07.509Z,37.07
2022-09-06T13:43:12.450Z,37.20
2022-09-06T13:44:19.703Z,37.17
2022-09-06T13:45:28.487Z,37.07
2022-09-06T13:46:30.165Z,37.06
2022-09-06T13:47:32.007Z,37.12
2022-09-06T13:48:34.143Z,37.26
2022-09-06T13:49:35.629Z,37.09
2022-09-06T13:50:37.118Z,36.13
2022-09-06T13:51:39.420Z,35.48
2022-09-06T13:52:41.723Z,35.65
2022-09-06T13:53:43.239Z,35.55
2022-09-06T13:54:45.555Z,35.09
2022-09-06T13:55:47.177Z,34.88
2022-09-06T13:56:49.936Z,35.22
2022-09-06T13:57:51.730Z,35.17
2022-09-06T13:58:53.193Z,35.23
2022-09-06T13:59:54.637Z,35.40
2022-09-06T14:00:56.885Z,35.90
2022-09-06T14:02:08.423Z,35.26
2022-09-06T14:03:19.033Z,35.45
2022-09-06T14:04:21.513Z,35.90
2022-09-06T14:05:23.068Z,36.05
2022-09-06T14:06:24.560Z,35.59
2022-09-06T14:07:26.088Z,35.38
2022-09-06T14:08:43.912Z,35.83
2022-09-06T14:09:51.262Z,36.04
2022-09-06T14:10:53.560Z,35.67
2022-09-06T14:11:55.356Z,35.68
2022-09-06T14:12:56.821Z,35.91
2022-09-06T14:13:59.321Z,35.61
2022-09-06T14:15:01.175Z,34.96
2022-09-06T14:16:05.339Z,35.20
2022-09-06T14:17:06.917Z,35.38
2022-09-06T14:18:12.572Z,35.42
2022-09-06T14:19:16.430Z,35.01
2022-09-06T14:20:17.977Z,35.33
2022-09-06T14:21:19.544Z,35.26
2022-09-06T14:22:20.989Z,35.52
2022-09-06T14:23:23.323Z,35.17
2022-09-06T14:24:25.108Z,34.98
2022-09-06T14:25:26.626Z,34.83
2022-09-06T14:26:28.509Z,34.43
2022-09-06T14:27:30.057Z,34.46
2022-09-06T14:28:33.617Z,34.73
2022-09-06T14:29:35.998Z,34.59
2022-09-06T14:30:38.125Z,34.71
2022-09-06T14:31:39.762Z,34.75
2022-09-06T14:32:41.451Z,35.05
2022-09-06T14:33:43.579Z,34.28
2022-09-06T14:34:46.069Z,33.70
2022-09-06T14:35:48.121Z,33.89
2022-09-06T14:36:49.615Z,33.53
2022-09-06T14:37:51.456Z,33.43
2022-09-06T14:38:53.474Z,34.08
2022-09-06T14:39:55.359Z,34.30
2022-09-06T14:41:03.898Z,34.50
2022-09-06T14:42:05.584Z,34.55